Time;durP1;ratioP1;P1;durP2;ratioP2;P2;SDS_P1;SDS_P2;PMS_P1;PMS_P2;Temp;Humidity;BMP_temperature;BMP_pressure;BME280_temperature;BME280_humidity;BME280_pressure;Samples;Min_cycle;Max_cycle;Signal;HPM_P1;HPM_P2
2021/12/28 00:01:02;;;;;;;4.97;4.53;;;7.50;99.90;;;;;;5057066;28;20167;-80
2021/12/28 00:03:28;;;;;;;5.77;4.30;;;7.50;99.90;;;;;;5055887;28;20269;-80
2021/12/28 00:05:54;;;;;;;5.00;4.23;;;7.50;99.90;;;;;;5055450;28;20550;-80
2021/12/28 00:08:20;;;;;;;4.33;3.93;;;7.50;99.90;;;;;;5056097;28;20184;-81
2021/12/28 00:10:47;;;;;;;4.87;4.33;;;7.50;99.90;;;;;;5057816;28;20249;-81
2021/12/28 00:13:16;;;;;;;4.40;4.10;;;7.50;99.90;;;;;;5057169;28;20175;-80
2021/12/28 00:16:12;;;;;;;5.23;4.73;;;7.50;99.90;;;;;;5056540;28;20195;-80
2021/12/28 00:18:37;;;;;;;4.43;4.13;;;7.50;99.90;;;;;;5056411;28;20186;-80
2021/12/28 00:21:06;;;;;;;4.60;4.17;;;7.50;99.90;;;;;;5055089;28;20178;-79
2021/12/28 00:23:39;;;;;;;4.33;4.03;;;7.50;99.90;;;;;;5056305;28;20174;-80
2021/12/28 00:26:08;;;;;;;4.53;4.13;;;7.50;99.90;;;;;;5054638;28;20333;-80
2021/12/28 00:28:34;;;;;;;4.70;4.30;;;7.50;99.90;;;;;;5056335;28;20175;-80
2021/12/28 00:31:00;;;;;;;4.80;4.40;;;7.40;99.90;;;;;;5055848;28;20183;-80
2021/12/28 00:33:27;;;;;;;4.47;4.07;;;7.40;99.90;;;;;;5055099;28;20175;-80
2021/12/28 00:35:54;;;;;;;4.40;4.10;;;7.40;99.90;;;;;;5055741;28;20194;-83
2021/12/28 00:38:26;;;;;;;4.33;4.03;;;7.30;99.90;;;;;;5054895;28;20284;-83
2021/12/28 00:40:56;;;;;;;4.97;4.23;;;7.30;99.90;;;;;;5055347;28;20178;-83
2021/12/28 00:43:22;;;;;;;4.37;4.07;;;7.30;99.90;;;;;;5055399;28;20178;-83
2021/12/28 00:45:48;;;;;;;4.70;4.30;;;7.30;99.90;;;;;;5055702;28;20206;-83
2021/12/28 00:48:15;;;;;;;6.03;4.53;;;7.30;99.90;;;;;;5056104;28;20236;-83
2021/12/28 00:50:41;;;;;;;5.10;4.70;;;7.30;99.90;;;;;;5055714;28;20163;-81
2021/12/28 00:53:08;;;;;;;5.03;4.57;;;7.30;99.90;;;;;;5055135;28;20174;-81
2021/12/28 00:55:34;;;;;;;5.37;4.87;;;7.30;99.90;;;;;;5055671;28;20191;-81
2021/12/28 00:58:00;;;;;;;5.40;4.90;;;7.30;99.90;;;;;;5056095;28;20491;-81
2021/12/28 01:00:31;;;;;;;5.17;4.67;;;7.30;99.90;;;;;;5055452;28;20236;-81
2021/12/28 01:02:59;;;;;;;4.70;4.30;;;7.30;99.90;;;;;;5057168;28;20224;-81
2021/12/28 01:05:26;;;;;;;5.20;4.70;;;7.20;99.90;;;;;;5055975;28;20372;-83
2021/12/28 01:07:53;;;;;;;6.50;5.00;;;7.20;99.90;;;;;;5055617;28;20186;-80
2021/12/28 01:10:22;;;;;;;4.70;4.30;;;7.10;99.90;;;;;;5056223;28;20545;-82
2021/12/28 01:12:52;;;;;;;4.63;4.30;;;7.00;99.90;;;;;;5056772;28;20166;-82
2021/12/28 01:15:19;;;;;;;5.47;4.97;;;7.00;99.90;;;;;;5054219;28;20201;-82
2021/12/28 01:17:45;;;;;;;4.63;4.23;;;6.90;99.90;;;;;;5054094;28;20600;-82
2021/12/28 01:20:13;;;;;;;6.30;4.80;;;6.90;99.90;;;;;;5054066;28;20265;-81
2021/12/28 01:22:39;;;;;;;5.20;4.80;;;6.80;99.90;;;;;;5054525;28;20175;-81
2021/12/28 01:25:06;;;;;;;4.97;4.57;;;6.70;99.90;;;;;;5054171;28;20567;-81
2021/12/28 01:27:32;;;;;;;6.00;4.90;;;6.60;99.90;;;;;;5054555;28;20281;-81
2021/12/28 01:29:58;;;;;;;5.10;4.67;;;6.60;99.90;;;;;;5054248;28;20526;-81
2021/12/28 01:32:24;;;;;;;6.03;4.90;;;6.50;99.90;;;;;;5054156;28;20181;-81
2021/12/28 01:34:50;;;;;;;5.30;4.80;;;6.40;99.90;;;;;;5055334;28;20186;-81
2021/12/28 01:37:16;;;;;;;9.07;5.37;;;6.40;99.90;;;;;;5054136;28;20667;-80
2021/12/28 01:39:42;;;;;;;6.10;5.20;;;6.40;99.90;;;;;;5054725;28;20553;-81
2021/12/28 01:42:08;;;;;;;7.93;5.80;;;6.30;99.90;;;;;;5055015;28;20181;-80
2021/12/28 01:44:35;;;;;;;11.67;5.97;;;6.50;99.90;;;;;;5054247;28;20212;-81
2021/12/28 01:47:01;;;;;;;7.53;5.57;;;6.50;99.90;;;;;;5055346;28;20198;-81
2021/12/28 01:49:27;;;;;;;5.27;4.80;;;6.60;99.90;;;;;;5054063;28;20189;-81
2021/12/28 01:51:53;;;;;;;10.53;6.30;;;6.60;99.90;;;;;;5053720;28;20175;-81
2021/12/28 01:54:19;;;;;;;6.37;5.30;;;6.70;99.90;;;;;;5055409;28;20277;-80
2021/12/28 01:56:46;;;;;;;13.00;6.50;;;6.70;99.90;;;;;;5058325;28;20210;-80
2021/12/28 01:59:19;;;;;;;15.13;6.20;;;6.80;99.90;;;;;;5059578;28;20646;-81
2021/12/28 02:01:46;;;;;;;8.80;5.93;;;7.00;99.90;;;;;;5058638;28;20167;-81
2021/12/28 02:04:27;;;;;;;8.93;6.40;;;7.10;99.90;;;;;;5058930;28;20213;-80
2021/12/28 02:07:02;;;;;;;10.90;5.87;;;7.00;99.90;;;;;;5064241;28;20190;-80
2021/12/28 02:09:27;;;;;;;8.37;5.37;;;7.00;99.90;;;;;;5061405;28;20192;-80
2021/12/28 02:11:53;;;;;;;9.23;5.57;;;7.00;99.90;;;;;;5058917;28;20653;-81
2021/12/28 02:14:21;;;;;;;6.47;5.30;;;7.10;99.90;;;;;;5058681;28;20205;-80
2021/12/28 02:16:47;;;;;;;8.17;5.37;;;7.00;99.90;;;;;;5059698;28;20691;-80
2021/12/28 02:19:14;;;;;;;10.30;6.07;;;7.00;99.90;;;;;;5058716;28;20183;-80
2021/12/28 02:21:41;;;;;;;8.57;5.40;;;6.90;99.90;;;;;;5056954;28;20193;-80
2021/12/28 02:24:09;;;;;;;11.83;5.87;;;6.80;99.90;;;;;;5056782;28;20229;-80
2021/12/28 02:26:35;;;;;;;9.27;5.43;;;6.80;99.90;;;;;;5058106;28;20191;-80
2021/12/28 02:29:01;;;;;;;9.37;5.57;;;6.80;99.90;;;;;;5057129;28;20179;-80
2021/12/28 02:31:27;;;;;;;10.20;6.00;;;6.80;99.90;;;;;;5058453;28;20175;-80
2021/12/28 02:33:54;;;;;;;12.27;6.50;;;6.80;99.90;;;;;;5056621;28;20174;-81
2021/12/28 02:36:20;;;;;;;8.77;5.83;;;6.80;99.90;;;;;;5056742;28;20187;-81
2021/12/28 02:38:47;;;;;;;7.07;5.87;;;6.80;99.90;;;;;;5057161;28;20559;-80
2021/12/28 02:41:14;;;;;;;12.50;5.87;;;6.80;99.90;;;;;;5057461;28;20173;-80
2021/12/28 02:43:42;;;;;;;6.27;5.40;;;6.90;99.90;;;;;;5056807;28;20548;-80
2021/12/28 02:46:08;;;;;;;9.63;5.50;;;6.90;99.90;;;;;;5056695;28;20230;-80
2021/12/28 02:48:35;;;;;;;7.87;5.27;;;6.80;99.90;;;;;;5057243;28;20206;-80
2021/12/28 02:51:08;;;;;;;6.77;5.10;;;6.80;99.90;;;;;;5057958;28;20174;-80
2021/12/28 02:53:35;;;;;;;9.13;5.70;;;6.80;99.90;;;;;;5058217;28;20167;-80
2021/12/28 02:56:02;;;;;;;7.33;5.50;;;6.70;99.90;;;;;;5056706;28;20282;-80
2021/12/28 02:58:31;;;;;;;9.47;5.53;;;6.70;99.90;;;;;;5056060;28;20236;-80
2021/12/28 03:01:13;;;;;;;12.10;5.70;;;6.60;99.90;;;;;;5056008;28;20183;-80
2021/12/28 03:03:41;;;;;;;7.90;5.40;;;6.60;99.90;;;;;;5057505;28;20597;-80
2021/12/28 03:06:10;;;;;;;5.83;5.33;;;6.50;99.90;;;;;;5057092;28;20285;-80
2021/12/28 03:08:39;;;;;;;10.53;5.43;;;6.50;99.90;;;;;;5056796;28;20261;-80
2021/12/28 03:11:06;;;;;;;8.97;6.07;;;6.50;99.90;;;;;;5057164;28;20170;-80
2021/12/28 03:13:38;;;;;;;6.93;5.50;;;6.40;99.90;;;;;;5058367;28;20221;-82
2021/12/28 03:16:06;;;;;;;13.03;5.70;;;6.40;99.90;;;;;;5056817;28;20209;-82
2021/12/28 03:18:32;;;;;;;8.23;5.27;;;6.40;99.90;;;;;;5057005;28;20554;-82
2021/12/28 03:20:58;;;;;;;13.17;5.57;;;6.30;99.90;;;;;;5056590;28;20193;-82
2021/12/28 03:23:25;;;;;;;9.23;5.63;;;6.30;99.90;;;;;;5058655;28;20178;-82
2021/12/28 03:25:52;;;;;;;9.87;5.70;;;6.30;99.90;;;;;;5076276;28;20218;-82
2021/12/28 03:28:30;;;;;;;8.27;5.50;;;6.20;99.90;;;;;;5079651;28;20167;-82
2021/12/28 03:31:00;;;;;;;10.50;5.93;;;6.30;99.90;;;;;;5066975;28;20221;-80
2021/12/28 03:33:28;;;;;;;10.23;5.57;;;6.30;99.90;;;;;;5058337;28;20166;-81
2021/12/28 03:35:54;;;;;;;11.03;5.77;;;6.30;99.90;;;;;;5056581;28;20381;-81
2021/12/28 03:38:20;;;;;;;7.73;5.30;;;6.30;99.90;;;;;;5055777;28;20182;-81
2021/12/28 03:40:47;;;;;;;13.90;5.70;;;6.30;99.90;;;;;;5056029;28;20206;-81
2021/12/28 03:43:13;;;;;;;15.27;6.00;;;6.30;99.90;;;;;;5057311;28;20175;-81
2021/12/28 03:45:39;;;;;;;10.67;5.77;;;6.30;99.90;;;;;;5056985;28;20756;-81
2021/12/28 03:48:05;;;;;;;20.93;6.20;;;6.30;99.90;;;;;;5065474;28;20178;-81
2021/12/28 03:50:33;;;;;;;16.97;6.10;;;6.40;99.90;;;;;;5059490;28;20635;-79
2021/12/28 03:52:58;;;;;;;13.77;5.77;;;6.40;99.90;;;;;;5055013;28;20224;-80
2021/12/28 03:55:26;;;;;;;17.50;6.40;;;6.60;99.90;;;;;;5054958;28;20198;-80
2021/12/28 03:57:55;;;;;;;17.83;5.73;;;6.70;99.90;;;;;;5055188;28;20209;-79
2021/12/28 04:00:23;;;;;;;24.07;7.13;;;6.70;99.90;;;;;;5055188;28;20179;-79
2021/12/28 04:02:48;;;;;;;16.93;5.83;;;6.80;99.90;;;;;;5056795;28;20184;-79
2021/12/28 04:05:16;;;;;;;11.80;6.13;;;6.90;99.90;;;;;;5056319;28;20240;-79
2021/12/28 04:07:44;;;;;;;12.47;5.77;;;6.90;99.90;;;;;;5054976;28;20207;-80
2021/12/28 04:10:11;;;;;;;15.13;6.13;;;6.90;99.90;;;;;;5056240;28;20260;-79
2021/12/28 04:12:38;;;;;;;18.17;5.90;;;6.90;99.90;;;;;;5055208;28;20182;-80
2021/12/28 04:15:06;;;;;;;16.07;6.30;;;7.00;99.90;;;;;;5056097;28;20199;-80
2021/12/28 04:17:33;;;;;;;13.20;5.83;;;7.00;99.90;;;;;;5054116;28;20186;-79
2021/12/28 04:19:59;;;;;;;15.93;6.17;;;7.00;99.90;;;;;;5056018;28;20591;-80
2021/12/28 04:22:25;;;;;;;18.60;6.27;;;7.00;99.90;;;;;;5054470;28;20185;-79
2021/12/28 04:24:50;;;;;;;11.80;5.07;;;7.00;99.90;;;;;;5055659;28;20222;-79
2021/12/28 04:27:16;;;;;;;18.73;6.10;;;7.00;99.90;;;;;;5054701;28;20256;-80
2021/12/28 04:29:42;;;;;;;13.97;5.67;;;7.00;99.90;;;;;;5054955;28;20183;-79
2021/12/28 04:32:08;;;;;;;19.37;6.03;;;7.00;99.90;;;;;;5054506;28;20197;-79
2021/12/28 04:34:34;;;;;;;14.73;6.03;;;7.10;99.90;;;;;;5056147;28;20186;-79
2021/12/28 04:37:00;;;;;;;16.93;6.30;;;7.20;99.90;;;;;;5054702;28;20232;-79
2021/12/28 04:39:26;;;;;;;24.20;7.20;;;7.20;99.90;;;;;;5054504;28;20277;-80
2021/12/28 04:41:51;;;;;;;14.10;5.73;;;7.20;99.90;;;;;;5054683;28;20186;-80
2021/12/28 04:44:23;;;;;;;14.83;6.30;;;7.30;99.90;;;;;;5054660;28;20235;-80
2021/12/28 04:46:49;;;;;;;26.93;7.20;;;7.30;99.90;;;;;;5056292;28;20222;-80
2021/12/28 04:49:16;;;;;;;18.33;6.23;;;7.40;99.90;;;;;;5054781;28;20225;-79
2021/12/28 04:51:43;;;;;;;19.73;6.63;;;7.50;99.90;;;;;;5055890;28;20641;-80
2021/12/28 04:54:12;;;;;;;11.80;6.43;;;7.60;99.90;;;;;;5054367;28;20231;-80
2021/12/28 04:56:39;;;;;;;12.63;6.10;;;7.70;99.90;;;;;;5054138;28;20184;-80
2021/12/28 04:59:05;;;;;;;18.77;6.37;;;7.80;99.90;;;;;;5055755;28;20178;-80
2021/12/28 05:01:31;;;;;;;15.80;6.03;;;7.90;99.90;;;;;;5055608;28;20193;-80
2021/12/28 05:03:57;;;;;;;18.93;6.57;;;7.90;99.90;;;;;;5054125;28;20178;-79
2021/12/28 05:06:23;;;;;;;17.80;5.97;;;8.00;99.90;;;;;;5055731;28;20206;-80
2021/12/28 05:08:48;;;;;;;14.60;5.63;;;8.10;99.90;;;;;;5053992;28;20182;-79
2021/12/28 05:11:14;;;;;;;19.57;5.90;;;8.10;99.90;;;;;;5054364;28;20265;-80
2021/12/28 05:13:41;;;;;;;13.73;6.90;;;8.10;99.90;;;;;;5054050;28;20178;-80
2021/12/28 05:16:10;;;;;;;10.13;6.23;;;8.10;99.90;;;;;;5053870;28;20583;-80
2021/12/28 05:18:35;;;;;;;14.30;6.63;;;8.10;99.90;;;;;;5054295;28;20186;-80
2021/12/28 05:21:01;;;;;;;16.50;5.87;;;8.00;99.90;;;;;;5053855;28;20247;-80
2021/12/28 05:23:27;;;;;;;22.40;6.50;;;8.00;99.90;;;;;;5054430;28;20208;-80
2021/12/28 05:25:52;;;;;;;17.23;6.00;;;8.00;99.90;;;;;;5053767;28;20222;-80
2021/12/28 05:28:18;;;;;;;18.30;6.37;;;8.00;99.90;;;;;;5053854;28;20186;-80
2021/12/28 05:30:44;;;;;;;10.90;5.63;;;8.00;99.90;;;;;;5054115;28;20236;-80
2021/12/28 05:33:09;;;;;;;13.43;6.37;;;8.00;99.90;;;;;;5055958;28;20228;-80
2021/12/28 05:35:35;;;;;;;14.57;6.50;;;8.00;99.90;;;;;;5054371;28;20570;-80
2021/12/28 05:38:01;;;;;;;12.37;5.83;;;8.00;99.90;;;;;;5054483;28;20209;-79
2021/12/28 05:40:27;;;;;;;14.93;6.80;;;8.00;99.90;;;;;;5054446;28;20205;-80
2021/12/28 05:42:52;;;;;;;12.13;6.37;;;8.00;99.90;;;;;;5054278;28;20684;-79
2021/12/28 05:45:18;;;;;;;14.90;5.50;;;8.10;99.90;;;;;;5052647;28;20202;-79
2021/12/28 05:47:44;;;;;;;9.83;5.70;;;8.00;99.90;;;;;;5053007;28;20206;-79
2021/12/28 05:50:11;;;;;;;14.93;6.70;;;8.00;99.90;;;;;;5056239;28;20622;-80
2021/12/28 05:52:37;;;;;;;11.97;5.97;;;7.90;99.90;;;;;;5053607;28;20628;-80
2021/12/28 05:55:04;;;;;;;14.47;6.17;;;8.00;99.90;;;;;;5054085;28;20252;-80
2021/12/28 05:57:30;;;;;;;12.37;5.83;;;8.00;99.90;;;;;;5059654;28;20167;-80
2021/12/28 05:59:57;;;;;;;16.13;6.63;;;8.10;99.90;;;;;;5058683;28;20551;-80
2021/12/28 06:02:22;;;;;;;14.87;5.53;;;8.20;99.90;;;;;;5053394;28;20578;-79
2021/12/28 06:04:48;;;;;;;8.50;5.43;;;8.30;99.90;;;;;;5053600;28;20289;-79
2021/12/28 06:07:14;;;;;;;6.07;5.33;;;8.30;99.90;;;;;;5051998;28;20294;-79
2021/12/28 06:09:40;;;;;;;8.80;5.50;;;8.30;99.90;;;;;;5053089;28;20174;-79
2021/12/28 06:12:06;;;;;;;8.17;5.00;;;8.30;99.90;;;;;;5053507;28;20608;-79
2021/12/28 06:14:33;;;;;;;10.27;6.03;;;8.30;99.90;;;;;;5051875;28;20203;-79
2021/12/28 06:16:59;;;;;;;9.33;5.43;;;8.20;99.90;;;;;;5052114;28;20186;-79
2021/12/28 06:19:25;;;;;;;9.23;5.07;;;8.30;99.90;;;;;;5054036;28;20219;-80
2021/12/28 06:21:50;;;;;;;6.23;5.33;;;8.30;99.90;;;;;;5053870;28;20171;-80
2021/12/28 06:24:16;;;;;;;9.50;5.27;;;8.30;99.90;;;;;;5053704;28;20549;-79
2021/12/28 06:26:42;;;;;;;13.20;5.63;;;8.30;99.90;;;;;;5055616;28;20191;-79
2021/12/28 06:29:08;;;;;;;8.83;5.27;;;8.20;99.90;;;;;;5054668;28;20179;-79
2021/12/28 06:31:35;;;;;;;8.97;5.20;;;8.30;99.90;;;;;;5054339;28;20559;-79
2021/12/28 06:34:03;;;;;;;10.10;4.60;;;8.40;99.90;;;;;;5054034;28;20177;-80
2021/12/28 06:36:29;;;;;;;5.53;4.87;;;8.40;99.90;;;;;;5052819;28;20174;-80
2021/12/28 06:38:56;;;;;;;8.00;5.00;;;8.40;99.90;;;;;;5051987;28;20273;-79
2021/12/28 06:41:22;;;;;;;6.63;5.00;;;8.50;99.90;;;;;;5055476;28;20178;-79
2021/12/28 06:43:48;;;;;;;5.00;4.50;;;8.40;99.90;;;;;;5056692;28;20182;-79
2021/12/28 06:46:14;;;;;;;7.03;5.43;;;8.30;99.90;;;;;;5057129;28;20206;-80
2021/12/28 06:48:40;;;;;;;7.87;4.40;;;8.30;99.90;;;;;;5055722;28;20273;-79
2021/12/28 06:51:07;;;;;;;7.17;4.47;;;8.30;99.90;;;;;;5055763;28;20684;-79
2021/12/28 06:53:34;;;;;;;6.73;4.40;;;8.30;99.90;;;;;;5055531;28;20190;-79
2021/12/28 06:56:00;;;;;;;6.83;4.70;;;8.30;99.90;;;;;;5055658;28;20206;-79
2021/12/28 06:58:26;;;;;;;4.97;4.40;;;8.40;99.90;;;;;;5056799;28;20183;-80
2021/12/28 07:00:51;;;;;;;5.33;4.20;;;8.40;99.90;;;;;;5055594;28;20185;-80
2021/12/28 07:03:17;;;;;;;9.30;4.30;;;8.40;99.90;;;;;;5057368;28;20178;-80
2021/12/28 07:05:43;;;;;;;8.20;4.57;;;8.40;99.90;;;;;;5056992;28;20222;-81
2021/12/28 07:08:09;;;;;;;6.53;4.40;;;8.40;99.90;;;;;;5056935;28;20186;-81
2021/12/28 07:10:34;;;;;;;7.73;4.53;;;8.30;99.90;;;;;;5055140;28;20178;-81
2021/12/28 07:13:00;;;;;;;5.90;4.20;;;8.30;99.90;;;;;;5054956;28;20178;-81
2021/12/28 07:15:26;;;;;;;9.83;4.43;;;8.30;99.90;;;;;;5055174;28;20205;-81
2021/12/28 07:17:52;;;;;;;5.20;4.00;;;8.30;99.90;;;;;;5055026;28;20206;-81
2021/12/28 07:20:19;;;;;;;4.43;4.03;;;8.30;99.90;;;;;;5054859;28;20221;-81
2021/12/28 07:22:44;;;;;;;6.13;4.13;;;8.30;99.90;;;;;;5054667;28;20214;-81
2021/12/28 07:25:11;;;;;;;4.50;4.07;;;8.30;99.90;;;;;;5055970;28;20585;-82
2021/12/28 07:27:38;;;;;;;5.43;4.10;;;8.30;99.90;;;;;;5057331;28;20202;-82
2021/12/28 07:30:07;;;;;;;7.77;4.40;;;8.30;99.90;;;;;;5056244;28;20678;-82
2021/12/28 07:32:33;;;;;;;4.20;3.90;;;8.30;99.90;;;;;;5056593;28;20184;-82
2021/12/28 07:34:59;;;;;;;4.90;4.00;;;8.30;99.90;;;;;;5058097;28;20273;-80
2021/12/28 07:37:25;;;;;;;4.33;3.87;;;8.30;99.90;;;;;;5057887;28;20218;-80
2021/12/28 07:39:53;;;;;;;5.00;4.20;;;8.30;99.90;;;;;;5060005;28;20228;-80
2021/12/28 07:42:19;;;;;;;7.60;4.30;;;8.30;99.90;;;;;;5058235;28;20204;-81
2021/12/28 07:44:44;;;;;;;4.50;4.10;;;8.40;99.90;;;;;;5058979;28;20309;-80
2021/12/28 07:47:10;;;;;;;5.80;4.13;;;8.40;99.90;;;;;;5058518;28;20293;-80
2021/12/28 07:49:36;;;;;;;4.87;4.00;;;8.40;99.90;;;;;;5058510;28;20174;-80
2021/12/28 07:52:02;;;;;;;6.03;3.80;;;8.50;99.90;;;;;;5057497;28;20183;-81
2021/12/28 07:54:28;;;;;;;4.33;3.90;;;8.50;99.90;;;;;;5060312;28;20547;-81
2021/12/28 07:56:54;;;;;;;3.87;3.57;;;8.50;99.90;;;;;;5059118;28;20186;-81
2021/12/28 07:59:19;;;;;;;3.97;3.67;;;8.50;99.90;;;;;;5060296;28;20190;-80
2021/12/28 08:01:45;;;;;;;4.07;3.60;;;8.40;99.90;;;;;;5060491;28;20189;-80
2021/12/28 08:04:11;;;;;;;4.00;3.50;;;8.40;99.90;;;;;;5062677;28;20183;-81
2021/12/28 08:06:37;;;;;;;5.37;3.60;;;8.40;99.90;;;;;;5060951;28;20224;-81
2021/12/28 08:09:05;;;;;;;4.23;3.83;;;8.40;99.90;;;;;;5060028;28;20240;-80
2021/12/28 08:11:33;;;;;;;3.97;3.67;;;8.40;99.90;;;;;;5059083;28;20228;-80
2021/12/28 08:13:58;;;;;;;4.60;3.73;;;8.40;99.90;;;;;;5057976;28;20179;-80
2021/12/28 08:16:24;;;;;;;4.17;3.83;;;8.40;99.90;;;;;;5057412;28;20186;-81
2021/12/28 08:18:50;;;;;;;3.83;3.53;;;8.40;99.90;;;;;;5060799;28;20174;-81
2021/12/28 08:21:16;;;;;;;4.00;3.70;;;8.40;99.90;;;;;;5059137;28;20201;-80
2021/12/28 08:23:41;;;;;;;4.03;3.63;;;8.40;99.90;;;;;;5059292;28;20210;-80
2021/12/28 08:26:07;;;;;;;3.77;3.47;;;8.50;99.90;;;;;;5058772;28;20217;-81
2021/12/28 08:28:33;;;;;;;3.40;3.20;;;8.40;99.90;;;;;;5058373;28;20265;-81
2021/12/28 08:30:59;;;;;;;4.30;3.30;;;8.50;99.90;;;;;;5058488;28;20170;-80
2021/12/28 08:33:25;;;;;;;3.87;3.60;;;8.50;99.90;;;;;;5057787;28;20185;-80
2021/12/28 08:35:51;;;;;;;4.03;3.70;;;8.50;99.90;;;;;;5058572;28;20245;-80
2021/12/28 08:38:17;;;;;;;4.00;3.30;;;8.50;99.90;;;;;;5057136;28;20175;-81
2021/12/28 08:40:44;;;;;;;3.57;3.40;;;8.60;99.90;;;;;;5057855;28;20649;-81
2021/12/28 08:43:11;;;;;;;4.43;3.30;;;8.60;99.90;;;;;;5058494;28;20269;-81
2021/12/28 08:45:40;;;;;;;7.17;3.70;;;8.70;99.90;;;;;;5058561;28;20198;-80
2021/12/28 08:48:07;;;;;;;3.50;3.30;;;8.70;99.90;;;;;;5059588;28;20170;-81
2021/12/28 08:50:35;;;;;;;3.53;3.33;;;8.80;99.90;;;;;;5059102;28;20193;-81
2021/12/28 08:53:01;;;;;;;3.50;3.20;;;8.80;99.90;;;;;;5058295;28;20181;-81
2021/12/28 08:55:27;;;;;;;3.90;3.50;;;8.90;99.90;;;;;;5057326;28;20198;-81
2021/12/28 08:57:53;;;;;;;3.77;3.47;;;9.00;99.90;;;;;;5057775;28;20194;-80
2021/12/28 09:00:22;;;;;;;4.23;3.63;;;9.10;99.90;;;;;;5057301;28;20189;-81
2021/12/28 09:02:50;;;;;;;3.27;3.07;;;9.10;99.90;;;;;;5057431;28;20277;-81
2021/12/28 09:05:16;;;;;;;3.57;3.27;;;9.10;99.90;;;;;;5057180;28;20717;-81
2021/12/28 09:07:42;;;;;;;3.67;3.37;;;9.30;99.90;;;;;;5058371;28;20206;-80
2021/12/28 09:10:08;;;;;;;3.90;3.30;;;9.30;99.90;;;;;;5059518;28;20175;-81
2021/12/28 09:12:34;;;;;;;3.50;3.20;;;9.40;99.90;;;;;;5057895;28;20198;-81
2021/12/28 09:15:00;;;;;;;3.47;3.17;;;9.40;99.90;;;;;;5058524;28;20209;-80
2021/12/28 09:17:26;;;;;;;3.30;3.10;;;9.30;99.90;;;;;;5062367;28;20572;-80
2021/12/28 09:19:51;;;;;;;3.50;3.27;;;9.30;99.90;;;;;;5057878;28;20182;-80
2021/12/28 09:22:17;;;;;;;3.77;3.47;;;9.30;99.90;;;;;;5058219;28;20197;-80
2021/12/28 09:24:43;;;;;;;11.03;3.60;;;9.40;99.90;;;;;;5057461;28;20218;-80
2021/12/28 09:27:08;;;;;;;3.40;3.20;;;9.40;99.90;;;;;;5057956;28;20243;-80
2021/12/28 09:29:35;;;;;;;3.70;3.00;;;9.50;99.90;;;;;;5058193;28;20182;-80
2021/12/28 09:32:02;;;;;;;3.50;3.20;;;9.50;99.90;;;;;;5057763;28;20191;-80
2021/12/28 09:34:28;;;;;;;3.40;3.10;;;9.60;99.90;;;;;;5057763;28;20206;-80
2021/12/28 09:36:56;;;;;;;3.10;3.00;;;9.60;99.90;;;;;;5059371;28;20178;-80
2021/12/28 09:39:26;;;;;;;5.17;3.57;;;9.60;99.90;;;;;;5067661;28;20619;-81
2021/12/28 09:41:54;;;;;;;3.27;3.00;;;9.70;99.90;;;;;;5065705;28;20183;-81
2021/12/28 09:44:20;;;;;;;4.70;3.33;;;9.70;99.90;;;;;;5065182;28;20205;-81
2021/12/28 09:46:46;;;;;;;3.40;3.20;;;9.70;99.90;;;;;;5062829;28;20236;-81
2021/12/28 09:49:12;;;;;;;4.10;3.70;;;9.80;99.90;;;;;;5063554;28;20175;-81
2021/12/28 09:51:38;;;;;;;3.53;3.33;;;9.80;99.90;;;;;;5066808;28;20182;-81
2021/12/28 09:54:05;;;;;;;3.30;3.10;;;9.70;99.90;;;;;;5064297;28;20185;-83
2021/12/28 09:56:31;;;;;;;3.27;3.00;;;9.70;99.90;;;;;;5055848;28;20257;-82
2021/12/28 09:58:57;;;;;;;3.60;3.30;;;9.70;99.90;;;;;;5057755;28;20171;-79
2021/12/28 10:01:23;;;;;;;7.37;3.33;;;9.60;99.90;;;;;;5052811;28;20194;-79
2021/12/28 10:03:49;;;;;;;4.27;2.70;;;9.60;99.90;;;;;;5052610;28;20499;-79
2021/12/28 10:06:21;;;;;;;3.17;2.97;;;9.60;99.90;;;;;;5052644;28;20237;-78
2021/12/28 10:08:48;;;;;;;3.00;2.80;;;9.50;99.90;;;;;;5052934;28;20627;-78
2021/12/28 10:11:15;;;;;;;3.40;3.10;;;9.50;99.90;;;;;;5052780;28;20182;-78
2021/12/28 10:13:41;;;;;;;2.93;2.80;;;9.60;99.90;;;;;;5053301;28;20178;-78
2021/12/28 10:16:06;;;;;;;2.97;2.77;;;9.70;99.90;;;;;;5054704;28;20551;-79
2021/12/28 10:18:33;;;;;;;3.50;3.00;;;9.80;99.90;;;;;;5059543;28;20606;-84
2021/12/28 10:21:17;;;;;;;3.20;2.90;;;10.00;99.90;;;;;;5059505;28;20236;-85
2021/12/28 10:23:45;;;;;;;3.30;3.10;;;10.00;99.90;;;;;;5056887;28;20170;-78
2021/12/28 10:26:15;;;;;;;2.67;2.50;;;10.00;99.90;;;;;;5058534;28;20210;-78
2021/12/28 10:28:40;;;;;;;4.20;3.53;;;10.00;99.90;;;;;;5056912;28;20651;-78
2021/12/28 10:31:18;;;;;;;2.67;2.50;;;10.00;99.90;;;;;;5060975;28;20167;-78
2021/12/28 10:33:44;;;;;;;3.73;2.90;;;10.00;99.90;;;;;;5065838;28;20177;-78
2021/12/28 10:36:13;;;;;;;3.00;2.80;;;9.90;99.90;;;;;;5062122;28;20216;-80
2021/12/28 10:38:50;;;;;;;2.90;2.80;;;10.00;99.90;;;;;;5058145;28;20252;-89
2021/12/28 10:41:18;;;;;;;3.77;2.90;;;10.00;99.90;;;;;;5058059;28;20181;-83
2021/12/28 10:43:49;;;;;;;3.27;3.00;;;10.00;99.90;;;;;;5057071;28;20189;-85
2021/12/28 10:46:20;;;;;;;4.80;2.70;;;10.00;99.90;;;;;;5055518;28;20237;-83
2021/12/28 10:48:52;;;;;;;3.37;2.87;;;10.00;99.90;;;;;;5055939;28;20171;-90
2021/12/28 10:51:22;;;;;;;2.90;2.70;;;10.00;99.90;;;;;;5056787;28;20167;-90
2021/12/28 10:57:06;;;;;;;2.93;2.73;;;10.00;99.90;;;;;;5055925;28;20190;-90
2021/12/28 10:59:33;;;;;;;2.87;2.67;;;10.00;99.90;;;;;;5056624;28;20179;-82
2021/12/28 11:01:59;;;;;;;2.83;2.73;;;10.00;99.90;;;;;;5056698;28;20177;-82
2021/12/28 11:04:35;;;;;;;3.00;2.60;;;10.00;99.90;;;;;;5056403;28;20194;-82
2021/12/28 11:07:07;;;;;;;2.80;2.70;;;10.00;99.90;;;;;;5058109;28;20631;-83
2021/12/28 11:09:33;;;;;;;2.80;2.70;;;10.00;99.90;;;;;;5056642;28;20237;-83
2021/12/28 11:11:58;;;;;;;2.80;2.60;;;10.00;99.90;;;;;;5057125;28;20186;-83
2021/12/28 11:14:29;;;;;;;4.13;3.07;;;10.00;99.90;;;;;;5056144;28;20289;-83
2021/12/28 11:17:02;;;;;;;16.00;9.93;;;10.00;99.90;;;;;;5056654;28;20201;-83
2021/12/28 11:19:30;;;;;;;4.73;4.40;;;10.00;99.90;;;;;;5056857;28;20182;-82
2021/12/28 11:21:58;;;;;;;3.10;2.90;;;10.00;99.90;;;;;;5057599;28;20189;-83
2021/12/28 11:24:30;;;;;;;2.80;2.60;;;10.00;99.90;;;;;;5056299;28;20222;-83
2021/12/28 11:26:55;;;;;;;2.60;2.50;;;10.00;99.90;;;;;;5058439;28;20191;-82
2021/12/28 11:29:30;;;;;;;2.70;2.60;;;10.00;99.90;;;;;;5058006;28;20258;-82
2021/12/28 11:32:04;;;;;;;2.83;2.63;;;10.00;99.90;;;;;;5055602;28;20162;-83
2021/12/28 11:34:39;;;;;;;2.60;2.50;;;10.00;99.90;;;;;;5055754;28;20597;-83
2021/12/28 11:37:08;;;;;;;2.50;2.40;;;10.00;99.90;;;;;;5056796;28;20208;-82
2021/12/28 11:39:41;;;;;;;2.50;2.40;;;10.00;99.90;;;;;;5055409;28;20201;-84
2021/12/28 11:42:12;;;;;;;2.70;2.40;;;9.90;99.90;;;;;;5057524;28;20163;-85
2021/12/28 11:44:38;;;;;;;2.60;2.43;;;9.90;99.90;;;;;;5056296;28;20209;-84
2021/12/28 11:47:07;;;;;;;2.50;2.40;;;10.00;99.90;;;;;;5056224;28;20212;-85
2021/12/28 11:49:46;;;;;;;2.70;2.60;;;10.00;99.90;;;;;;5057517;28;20171;-88
2021/12/28 11:52:15;;;;;;;3.57;3.37;;;10.00;99.90;;;;;;5055428;28;20170;-86
2021/12/28 11:54:49;;;;;;;2.80;2.67;;;10.00;99.90;;;;;;5055120;28;20288;-85
2021/12/28 11:57:17;;;;;;;3.03;2.83;;;10.00;99.90;;;;;;5055117;28;20224;-83
2021/12/28 11:59:55;;;;;;;2.67;2.57;;;10.00;99.90;;;;;;5055735;28;20182;-83
2021/12/28 12:02:38;;;;;;;2.83;2.65;;;10.00;99.90;;;;;;5055553;28;20204;-83
2021/12/28 12:05:19;;;;;;;2.57;2.47;;;10.00;99.90;;;;;;5055661;28;20227;-83
2021/12/28 12:08:01;;;;;;;2.70;2.60;;;10.00;99.90;;;;;;5057885;28;20198;-84
2021/12/28 12:10:31;;;;;;;2.40;2.30;;;10.00;99.90;;;;;;5055630;28;20249;-84
2021/12/28 12:13:02;;;;;;;2.70;2.60;;;10.00;99.90;;;;;;5055068;28;20185;-85
2021/12/28 12:15:39;;;;;;;2.70;2.60;;;10.00;99.90;;;;;;5054889;28;20199;-93
2021/12/28 12:18:10;;;;;;;2.40;2.30;;;10.00;99.90;;;;;;5054771;28;20162;-90
2021/12/28 12:20:37;;;;;;;2.40;2.30;;;10.00;99.90;;;;;;5055842;28;20167;-88
2021/12/28 12:23:08;;;;;;;2.50;2.40;;;10.00;99.90;;;;;;5055883;28;20220;-85
2021/12/28 12:25:47;;;;;;;3.20;2.80;;;10.10;99.90;;;;;;5054132;28;20218;-85
2021/12/28 12:28:14;;;;;;;2.50;2.40;;;10.10;99.90;;;;;;5054563;28;20654;-85
2021/12/28 12:30:49;;;;;;;2.47;2.37;;;10.10;99.90;;;;;;5054390;28;20205;-85
2021/12/28 12:33:17;;;;;;;2.50;2.40;;;10.10;99.90;;;;;;5054633;28;20560;-85
2021/12/28 12:35:55;;;;;;;2.63;2.40;;;10.10;99.90;;;;;;5054221;28;20203;-85
2021/12/28 12:38:24;;;;;;;2.63;2.42;;;10.10;99.90;;;;;;5053463;28;20216;-85
2021/12/28 12:40:51;;;;;;;2.72;2.53;;;10.10;99.90;;;;;;5053771;28;20179;-85
2021/12/28 12:43:17;;;;;;;2.60;2.50;;;10.10;99.90;;;;;;5053845;28;20170;-85
2021/12/28 12:45:52;;;;;;;2.83;2.60;;;10.10;99.90;;;;;;5053704;28;20206;-86
2021/12/28 12:48:53;;;;;;;3.33;2.60;;;10.00;99.90;;;;;;5055142;28;20261;-86
2021/12/28 12:51:21;;;;;;;3.37;2.80;;;9.90;99.90;;;;;;5053643;28;20205;-86
2021/12/28 12:53:58;;;;;;;3.53;2.77;;;9.80;99.90;;;;;;5053923;28;20186;-86
2021/12/28 12:56:29;;;;;;;2.90;2.70;;;9.70;99.90;;;;;;5053821;28;20174;-86
2021/12/28 12:58:59;;;;;;;2.70;2.60;;;9.60;99.90;;;;;;5054811;28;20536;-88